Time;durP1;ratioP1;P1;durP2;ratioP2;P2;SDS_P1;SDS_P2;PMS_P1;PMS_P2;Temp;Humidity;BMP_temperature;BMP_pressure;BME280_temperature;BME280_humidity;BME280_pressure;Samples;Min_cycle;Max_cycle;Signal;HPM_P1;HPM_P2
2021/12/05 00:21:57;;;;;;;;;16.75;16.75;;;;;16.26;51.78;96953.53;4840951;28;103748;-79
2021/12/05 00:24:24;;;;;;;;;22.00;19.50;;;;;16.29;51.54;96950.28;4877702;28;102496;-79
2021/12/05 00:26:58;;;;;;;;;20.75;17.00;;;;;16.30;51.58;96947.25;4897285;28;103990;-79
2021/12/05 00:37:55;;;;;;;;;20.25;16.50;;;;;16.41;51.31;96964.41;4918192;28;103120;-79
2021/12/05 00:51:23;;;;;;;;;20.75;17.00;;;;;16.53;51.14;96981.28;4904714;28;104225;-79
2021/12/05 01:10:38;;;;;;;;;14.75;13.00;;;;;16.64;50.45;96961.09;4896588;28;104834;-80
2021/12/05 01:13:34;;;;;;;;;17.75;14.75;;;;;16.66;50.36;96967.06;4904679;28;104209;-80
2021/12/05 01:16:06;;;;;;;;;16.50;15.00;;;;;16.67;51.37;96965.97;4916336;28;102641;-80
2021/12/05 01:18:34;;;;;;;;;15.25;13.50;;;;;16.69;50.92;96977.44;4887648;28;103708;-79
2021/12/05 01:21:06;;;;;;;;;16.50;13.00;;;;;16.70;50.01;96976.38;4874510;28;102549;-80
2021/12/05 01:26:06;;;;;;;;;18.00;16.50;;;;;16.71;50.71;96969.78;4899242;28;102657;-80
2021/12/05 01:39:41;;;;;;;;;12.75;10.75;;;;;16.77;50.05;96976.88;4896011;28;102836;-79
2021/12/05 01:47:51;;;;;;;;;16.00;12.75;;;;;16.79;49.59;96976.59;4897341;28;102315;-79
2021/12/05 01:51:01;;;;;;;;;14.25;12.75;;;;;16.81;49.79;96991.59;4878176;28;102604;-79
2021/12/05 01:53:42;;;;;;;;;17.25;14.00;;;;;16.82;50.43;96998.69;4882196;28;102743;-79
2021/12/05 02:01:46;;;;;;;;;19.00;16.25;;;;;16.82;49.41;96987.75;4908959;28;102672;-79
2021/12/05 02:10:43;;;;;;;;;15.00;14.50;;;;;16.84;49.63;96982.81;4906822;28;104797;-80
2021/12/05 02:42:10;;;;;;;;;16.25;15.25;;;;;16.85;49.02;96973.53;4904635;28;102997;-79
2021/12/05 02:44:39;;;;;;;;;15.50;12.50;;;;;16.86;49.07;96977.91;4919616;28;103383;-80
2021/12/05 02:47:16;;;;;;;;;17.00;15.00;;;;;16.86;49.30;96969.72;4911303;28;102765;-79
2021/12/05 02:49:45;;;;;;;;;17.00;12.25;;;;;16.86;48.74;96977.09;4894841;28;108917;-79
2021/12/05 02:52:24;;;;;;;;;14.00;13.00;;;;;16.85;48.81;96968.09;4904887;28;110010;-79
2021/12/05 02:54:53;;;;;;;;;17.00;12.50;;;;;16.85;48.44;96979.00;4913214;28;102292;-80
2021/12/05 02:57:46;;;;;;;;;16.25;13.25;;;;;16.85;48.47;96964.53;4915234;28;102480;-79
2021/12/05 03:00:12;;;;;;;;;15.00;12.50;;;;;16.85;48.60;96978.19;4903786;28;104064;-79
2021/12/05 03:02:42;;;;;;;;;14.50;11.75;;;;;16.84;49.42;96973.84;4896760;28;102495;-80
2021/12/05 03:05:14;;;;;;;;;15.00;12.75;;;;;16.83;48.97;96975.75;4887004;28;102396;-79
2021/12/05 03:07:42;;;;;;;;;13.00;13.00;;;;;16.83;49.03;96973.03;4909654;28;102741;-79
2021/12/05 03:10:11;;;;;;;;;16.00;15.00;;;;;16.84;48.59;96969.16;4899755;28;109014;-80
2021/12/05 03:12:39;;;;;;;;;13.00;11.25;;;;;16.85;48.40;96964.53;4897191;28;103586;-80
2021/12/05 03:15:08;;;;;;;;;14.00;13.00;;;;;16.84;48.83;96960.97;4886752;28;102552;-80
2021/12/05 03:17:35;;;;;;;;;13.75;11.50;;;;;16.84;48.81;96963.72;4894126;28;102472;-79
2021/12/05 03:20:05;;;;;;;;;12.75;11.00;;;;;16.82;48.65;96965.91;4889218;28;103538;-79
2021/12/05 03:22:32;;;;;;;;;12.50;12.25;;;;;16.83;48.66;96967.56;4865705;28;102718;-80
2021/12/05 03:24:59;;;;;;;;;11.25;11.00;;;;;16.83;48.60;96969.47;4894975;28;105296;-79
2021/12/05 03:27:27;;;;;;;;;12.75;12.75;;;;;16.81;48.13;96958.81;4914224;28;103407;-79
2021/12/05 03:29:54;;;;;;;;;12.25;11.50;;;;;16.81;48.45;96958.00;4889538;28;104110;-79
2021/12/05 03:32:22;;;;;;;;;10.25;10.00;;;;;16.81;48.44;96958.81;4891896;28;102433;-79
2021/12/05 03:34:48;;;;;;;;;19.00;15.75;;;;;16.80;48.41;96951.72;4905503;28;104185;-79
2021/12/05 03:37:16;;;;;;;;;14.00;13.00;;;;;16.80;47.92;96954.44;4908445;28;103997;-80
2021/12/05 03:39:43;;;;;;;;;13.50;11.25;;;;;16.80;49.06;96959.91;4903746;28;103872;-79
2021/12/05 03:42:10;;;;;;;;;14.25;12.50;;;;;16.78;47.87;96959.41;4899087;28;103440;-79
2021/12/05 03:44:37;;;;;;;;;13.00;10.50;;;;;16.79;48.61;96949.28;4889880;28;102826;-80
2021/12/05 03:47:05;;;;;;;;;15.00;12.25;;;;;16.79;48.77;96950.13;4897442;28;105777;-79
2021/12/05 03:49:34;;;;;;;;;12.25;10.00;;;;;16.77;48.99;96963.22;4886233;28;104062;-80
2021/12/05 03:52:05;;;;;;;;;12.25;10.75;;;;;16.77;48.93;96952.28;4904134;28;102543;-79
2021/12/05 03:54:32;;;;;;;;;15.25;12.00;;;;;16.77;48.16;96957.75;4895954;28;102665;-79
2021/12/05 03:56:59;;;;;;;;;13.25;13.25;;;;;16.76;48.58;96956.13;4920555;28;102396;-80
2021/12/05 03:59:28;;;;;;;;;15.75;14.00;;;;;16.76;48.50;96950.66;4911090;28;104238;-79
2021/12/05 04:01:56;;;;;;;;;11.75;10.00;;;;;16.75;48.72;96949.00;4916340;28;103465;-80
2021/12/05 04:04:23;;;;;;;;;14.50;11.75;;;;;16.74;48.80;96952.03;4895711;28;102466;-80
2021/12/05 04:06:51;;;;;;;;;14.75;11.25;;;;;16.74;48.05;96960.25;4900725;28;102804;-79
2021/12/05 04:09:18;;;;;;;;;15.75;12.75;;;;;16.74;48.39;96952.88;4901262;28;104397;-79
2021/12/05 04:11:56;;;;;;;;;16.75;13.00;;;;;16.74;48.08;96954.78;4908362;28;102579;-79
2021/12/05 04:14:26;;;;;;;;;12.00;11.25;;;;;16.73;47.81;96966.78;4912275;28;103006;-79
2021/12/05 04:16:53;;;;;;;;;16.25;13.00;;;;;16.72;48.86;96955.03;4898361;28;102460;-79
2021/12/05 04:19:20;;;;;;;;;13.75;11.50;;;;;16.71;48.06;96961.59;4915649;28;104132;-80
2021/12/05 04:21:47;;;;;;;;;16.00;11.75;;;;;16.72;49.05;96960.50;4914645;28;102559;-79
2021/12/05 04:24:15;;;;;;;;;12.25;11.75;;;;;16.70;48.54;96946.34;4910808;28;102144;-79
2021/12/05 04:26:42;;;;;;;;;12.25;11.00;;;;;16.71;48.94;96958.03;4911300;28;102630;-79
2021/12/05 04:29:09;;;;;;;;;13.00;10.50;;;;;16.70;48.67;96956.44;4891204;28;104388;-79
2021/12/05 04:31:37;;;;;;;;;12.50;12.25;;;;;16.70;47.89;96957.25;4906042;28;103762;-79
2021/12/05 04:34:04;;;;;;;;;14.25;13.00;;;;;16.70;49.19;96950.97;4909498;28;102547;-79
2021/12/05 04:36:31;;;;;;;;;14.00;10.50;;;;;16.70;48.35;96961.91;4918264;28;102506;-79
2021/12/05 04:38:58;;;;;;;;;14.00;11.75;;;;;16.69;48.44;96955.63;4897960;28;104344;-79
2021/12/05 04:41:25;;;;;;;;;11.75;10.00;;;;;16.69;48.84;96963.81;4914586;28;102491;-79
2021/12/05 04:43:52;;;;;;;;;15.25;12.25;;;;;16.69;48.63;96971.16;4893544;28;102754;-79
2021/12/05 04:46:24;;;;;;;;;12.75;12.00;;;;;16.68;48.19;96970.34;4908030;28;102759;-79
2021/12/05 04:48:52;;;;;;;;;4.50;4.25;;;;;16.68;48.38;96969.53;4897801;28;104166;-79
2021/12/05 04:51:20;;;;;;;;;15.75;12.50;;;;;16.67;48.36;96978.81;4900133;28;102619;-79
2021/12/05 04:53:47;;;;;;;;;9.50;9.25;;;;;16.67;48.37;96974.16;4903530;28;102054;-79
2021/12/05 04:56:16;;;;;;;;;11.00;10.00;;;;;16.66;48.84;96978.00;4923737;28;102193;-79
2021/12/05 04:58:43;;;;;;;;;9.75;8.00;;;;;16.66;48.71;96977.19;4897121;28;109314;-80
2021/12/05 05:01:10;;;;;;;;;15.75;11.00;;;;;16.66;47.79;96978.00;4894644;28;102661;-79
2021/12/05 05:03:37;;;;;;;;;11.75;10.00;;;;;16.66;47.78;96977.19;4908974;28;103157;-79
2021/12/05 05:06:14;;;;;;;;;10.25;9.00;;;;;16.66;47.68;96978.00;4908218;28;103860;-79
2021/12/05 05:08:47;;;;;;;;;10.00;9.00;;;;;16.67;48.65;96973.34;4898839;28;109346;-79
2021/12/05 05:11:14;;;;;;;;;12.75;12.50;;;;;16.65;48.79;96970.91;4902556;28;103440;-79
2021/12/05 05:13:42;;;;;;;;;11.25;10.25;;;;;16.65;48.30;96968.19;4917062;28;102647;-79
2021/12/05 05:16:10;;;;;;;;;10.50;9.50;;;;;16.65;47.74;96968.19;4896074;28;102365;-79
2021/12/05 05:18:57;;;;;;;;;10.25;9.50;;;;;16.65;48.16;96970.09;4891172;28;102683;-79
2021/12/05 05:39:15;;;;;;;;;11.00;11.00;;;;;16.62;48.39;96993.28;4925167;28;102282;-79
2021/12/05 05:41:04;;;;;;;;;15.75;9.25;;;;;16.61;48.59;96994.41;4908407;28;103855;-79
2021/12/05 05:43:35;;;;;;;;;12.75;10.50;;;;;16.61;48.56;96997.13;4925781;28;102405;-79
2021/12/05 05:46:14;;;;;;;;;8.25;8.25;;;;;16.61;47.66;97001.78;4919861;28;102306;-79
2021/12/05 05:51:34;;;;;;;;;11.50;8.75;;;;;16.60;48.34;96998.22;4871771;28;108970;-79
2021/12/05 05:54:01;;;;;;;;;12.50;9.25;;;;;16.60;48.41;97006.41;4923285;28;102667;-79
2021/12/05 05:56:30;;;;;;;;;11.00;9.00;;;;;16.59;48.09;97002.03;4907538;28;102903;-79
2021/12/05 05:59:15;;;;;;;;;9.75;8.75;;;;;16.59;48.26;97004.78;4912548;28;103531;-79
2021/12/05 06:04:16;;;;;;;;;9.50;9.25;;;;;16.58;48.06;97008.59;4926172;28;102279;-79
2021/12/05 06:06:48;;;;;;;;;10.50;8.50;;;;;16.57;48.14;97009.66;4917368;28;102556;-79
2021/12/05 06:09:15;;;;;;;;;10.50;9.75;;;;;16.58;48.14;97008.59;4901621;28;105764;-79
2021/12/05 06:11:42;;;;;;;;;13.75;11.75;;;;;16.59;48.80;97009.41;4913515;28;109567;-79
2021/12/05 06:14:09;;;;;;;;;12.25;11.00;;;;;16.58;48.08;97018.69;4912318;28;102694;-79
2021/12/05 06:16:36;;;;;;;;;12.25;10.75;;;;;16.58;48.48;97018.69;4920935;28;102572;-79
2021/12/05 06:19:03;;;;;;;;;11.50;10.00;;;;;16.57;47.50;97017.03;4916258;28;102698;-79
2021/12/05 06:21:30;;;;;;;;;11.00;11.00;;;;;16.57;47.63;97017.03;4912078;28;105254;-79
2021/12/05 06:23:57;;;;;;;;;12.75;9.25;;;;;16.57;47.80;97023.28;4916796;28;103124;-79
2021/12/05 06:26:24;;;;;;;;;10.50;9.00;;;;;16.56;47.98;97016.22;4925231;28;102768;-79
2021/12/05 06:29:42;;;;;;;;;9.00;8.50;;;;;16.55;48.32;97020.03;4903463;28;102905;-79
2021/12/05 06:31:56;;;;;;;;;11.25;10.00;;;;;16.55;47.83;97024.69;4919051;28;108978;-83
2021/12/05 06:39:44;;;;;;;;;10.00;9.00;;;;;16.53;47.81;97033.94;4912101;28;102657;-80
2021/12/05 06:47:33;;;;;;;;;13.75;9.50;;;;;16.51;48.97;97043.53;4905305;28;103590;-80
2021/12/05 06:50:00;;;;;;;;;12.00;9.25;;;;;16.50;48.20;97052.78;4914205;28;103479;-80
2021/12/05 06:52:43;;;;;;;;;9.00;8.50;;;;;16.49;48.70;97053.88;4928454;28;108909;-80
2021/12/05 06:55:10;;;;;;;;;11.25;9.75;;;;;16.49;48.60;97057.44;4914717;28;102632;-80
2021/12/05 06:57:37;;;;;;;;;9.50;6.50;;;;;16.49;48.30;97064.78;4900172;28;102491;-79
2021/12/05 07:00:07;;;;;;;;;10.25;8.25;;;;;16.49;48.99;97070.25;4919897;28;102781;-80
2021/12/05 07:02:34;;;;;;;;;11.00;11.00;;;;;16.48;48.60;97063.97;4908607;28;104085;-80
2021/12/05 07:07:33;;;;;;;;;11.00;10.00;;;;;16.46;49.38;97077.09;4915056;28;102398;-80
2021/12/05 07:10:00;;;;;;;;;14.75;13.00;;;;;16.45;48.38;97074.63;4907418;28;104050;-80
2021/12/05 07:15:18;;;;;;;;;9.50;9.50;;;;;16.44;48.82;97097.53;4901743;28;102394;-80
2021/12/05 07:20:57;;;;;;;;;12.75;10.00;;;;;16.42;49.26;97094.28;4898495;28;105641;-80
2021/12/05 07:23:45;;;;;;;;;9.00;6.75;;;;;16.41;49.12;97092.63;4906684;28;109138;-80
2021/12/05 07:26:23;;;;;;;;;15.75;13.25;;;;;16.40;48.86;97104.63;4921395;28;102384;-79
2021/12/05 07:42:41;;;;;;;;;19.50;12.25;;;;;16.38;49.26;97090.47;4915919;28;104723;-79
2021/12/05 07:45:13;;;;;;;;;17.00;12.00;;;;;16.37;49.35;97086.09;4911228;28;104587;-79
2021/12/05 07:47:44;;;;;;;;;15.00;13.25;;;;;16.36;49.27;97087.19;4896479;28;102588;-80
2021/12/05 07:50:12;;;;;;;;;15.25;14.75;;;;;16.35;48.99;97091.81;4919895;28;104489;-80
2021/12/05 07:52:46;;;;;;;;;17.50;13.25;;;;;16.35;48.75;97085.53;4916587;28;103209;-80
2021/12/05 07:58:02;;;;;;;;;15.75;12.25;;;;;16.35;49.01;97080.91;4911927;28;102594;-79
2021/12/05 08:01:26;;;;;;;;;18.00;13.50;;;;;16.34;49.91;97089.38;4906680;28;102998;-80
2021/12/05 08:14:48;;;;;;;;;14.50;13.50;;;;;16.31;48.84;97098.09;4903946;28;103720;-80
2021/12/05 08:17:16;;;;;;;;;13.75;11.75;;;;;16.32;49.26;97099.75;4924109;28;104093;-80
2021/12/05 08:19:43;;;;;;;;;16.00;14.25;;;;;16.30;49.93;97100.00;4911088;28;102299;-80
2021/12/05 08:22:10;;;;;;;;;13.50;12.25;;;;;16.30;49.89;97105.47;4898177;28;103060;-80
2021/12/05 08:24:40;;;;;;;;;17.00;13.25;;;;;16.29;49.72;97103.03;4907892;28;102716;-80
2021/12/05 08:27:08;;;;;;;;;13.75;12.00;;;;;16.28;49.65;97102.22;4914663;28;104069;-80
2021/12/05 08:29:45;;;;;;;;;16.50;13.75;;;;;16.28;49.23;97109.56;4912932;28;103561;-80
2021/12/05 08:34:49;;;;;;;;;16.25;14.00;;;;;16.23;49.60;97113.13;4897088;28;103959;-80
2021/12/05 08:43:42;;;;;;;;;18.00;14.75;;;;;16.18;50.27;97117.75;4930653;28;102082;-77
2021/12/05 09:50:58;;;;;;;;;13.50;10.75;;;;;16.14;51.44;97142.03;4920345;28;102311;-79
2021/12/05 10:03:09;;;;;;;;;16.00;13.00;;;;;16.07;51.76;97138.75;4919198;28;102560;-79
2021/12/05 10:16:25;;;;;;;;;16.00;15.50;;;;;16.03;51.56;97165.72;4915588;28;108728;-79
2021/12/05 10:38:50;;;;;;;;;16.25;12.50;;;;;15.92;52.28;97161.38;4928239;28;103921;-79
2021/12/05 10:44:06;;;;;;;;;18.75;15.50;;;;;15.89;51.89;97159.19;4919683;28;103038;-79
2021/12/05 10:46:34;;;;;;;;;19.25;15.50;;;;;15.89;51.95;97169.28;4934583;28;103094;-79
2021/12/05 10:49:07;;;;;;;;;21.25;14.75;;;;;15.87;52.25;97160.53;4905560;28;104286;-79
2021/12/05 10:51:37;;;;;;;;;18.75;16.00;;;;;15.86;52.56;97169.78;4903738;28;102205;-79
2021/12/05 10:54:09;;;;;;;;;16.25;14.75;;;;;15.86;52.02;97172.50;4925751;28;102181;-80
2021/12/05 10:56:38;;;;;;;;;17.75;16.00;;;;;15.86;51.65;97165.16;4921934;28;102261;-79
2021/12/05 10:59:09;;;;;;;;;18.25;17.25;;;;;15.85;51.56;97171.69;4911036;28;104110;-79
2021/12/05 11:01:43;;;;;;;;;16.50;14.75;;;;;15.85;52.28;97170.91;4912940;28;104947;-79
2021/12/05 11:04:21;;;;;;;;;22.25;21.50;;;;;15.81;52.15;97161.59;4932326;28;102715;-78
2021/12/05 11:07:01;;;;;;;;;38.75;34.00;;;;;15.83;51.72;97173.88;4911707;28;102421;-78
2021/12/05 11:09:29;;;;;;;;;41.75;35.75;;;;;15.85;52.00;97173.63;4919362;28;104034;-78
2021/12/05 11:12:00;;;;;;;;;49.25;40.50;;;;;15.87;52.07;97166.81;4917001;28;102359;-78
2021/12/05 11:14:35;;;;;;;;;47.00;37.00;;;;;15.87;51.85;97172.25;4911087;28;102610;-79
2021/12/05 11:17:10;;;;;;;;;39.25;35.50;;;;;15.92;51.80;97188.63;4878353;28;102575;-78
2021/12/05 11:19:44;;;;;;;;;29.75;24.50;;;;;15.94;52.07;97180.19;4908672;28;104106;-78
2021/12/05 11:22:22;;;;;;;;;34.75;30.50;;;;;15.98;52.22;97189.47;4916821;28;102579;-78
2021/12/05 11:24:54;;;;;;;;;36.50;31.25;;;;;15.97;52.14;97206.91;4906407;28;102464;-81
2021/12/05 11:27:39;;;;;;;;;32.75;30.25;;;;;16.00;52.13;97207.19;4905668;28;102770;-81
2021/12/05 11:30:13;;;;;;;;;27.00;26.00;;;;;16.03;52.13;97212.06;4914354;28;104464;-80
2021/12/05 11:32:51;;;;;;;;;30.25;27.50;;;;;16.05;51.66;97206.38;4905504;28;102823;-80
2021/12/05 11:35:42;;;;;;;;;23.75;21.00;;;;;16.07;51.46;97194.09;4896885;28;102674;-79
2021/12/05 11:38:22;;;;;;;;;26.00;24.25;;;;;16.11;51.25;97199.84;4884836;28;102667;-80
2021/12/05 11:41:06;;;;;;;;;28.25;23.00;;;;;16.14;51.95;97193.00;4911694;28;109031;-81
2021/12/05 11:43:44;;;;;;;;;31.75;26.00;;;;;16.14;51.21;97193.00;4908937;28;102358;-80
2021/12/05 11:46:22;;;;;;;;;29.50;26.00;;;;;16.18;51.78;97203.09;4902369;28;102644;-81
2021/12/05 11:48:54;;;;;;;;;28.25;22.75;;;;;16.18;52.20;97202.28;4911955;28;102305;-79
2021/12/05 11:51:27;;;;;;;;;24.00;23.25;;;;;16.22;52.50;97206.09;4889940;28;104101;-82
2021/12/05 11:54:08;;;;;;;;;24.50;21.50;;;;;16.24;52.56;97201.22;4909749;28;102657;-80
2021/12/05 11:56:37;;;;;;;;;21.75;19.00;;;;;16.28;52.17;97199.56;4882771;28;102359;-81
2021/12/05 11:59:04;;;;;;;;;21.25;20.75;;;;;16.30;52.14;97202.88;4891713;28;102749;-80
2021/12/05 12:02:02;;;;;;;;;20.25;19.25;;;;;16.33;52.78;97203.13;4905108;28;103787;-81
2021/12/05 12:04:56;;;;;;;;;22.00;21.75;;;;;16.37;52.28;97206.13;4896231;28;102281;-82
2021/12/05 12:07:52;;;;;;;;;24.75;20.50;;;;;16.40;52.10;97197.41;4890088;28;102848;-81
2021/12/05 12:10:39;;;;;;;;;21.50;18.25;;;;;16.44;52.58;97201.22;4894271;28;110710;-81
2021/12/05 12:13:09;;;;;;;;;21.25;19.75;;;;;16.47;52.79;97201.50;4877770;28;108710;-83
2021/12/05 12:15:37;;;;;;;;;19.25;17.25;;;;;16.49;52.59;97201.22;4903399;28;102470;-85
2021/12/05 12:18:16;;;;;;;;;20.75;19.25;;;;;16.53;52.46;97202.31;4889688;28;104757;-82
2021/12/05 12:20:45;;;;;;;;;18.25;16.75;;;;;16.55;52.02;97208.31;4897760;28;102487;-82
2021/12/05 12:23:15;;;;;;;;;20.00;18.50;;;;;16.58;52.29;97204.25;4905913;28;104010;-82
2021/12/05 12:25:43;;;;;;;;;20.50;19.25;;;;;16.60;52.61;97205.63;4896726;28;103379;-82
2021/12/05 12:28:10;;;;;;;;;19.50;17.75;;;;;16.62;52.22;97206.16;4910260;28;102738;-82
2021/12/05 12:30:39;;;;;;;;;22.00;21.00;;;;;16.68;51.49;97212.44;4875084;28;103539;-83
2021/12/05 12:33:10;;;;;;;;;23.75;21.00;;;;;16.78;52.81;97205.06;4906076;28;103917;-88
2021/12/05 12:35:56;;;;;;;;;26.75;23.75;;;;;16.87;52.17;97165.19;4790876;28;102657;-90
2021/12/05 12:39:04;;;;;;;;;23.75;22.00;;;;;17.00;51.34;97182.91;4834574;28;102472;-92
2021/12/05 12:41:42;;;;;;;;;24.25;22.00;;;;;17.11;51.66;97191.91;4822437;28;104718;-90
2021/12/05 12:44:13;;;;;;;;;23.25;22.50;;;;;17.24;50.64;97197.63;4683570;28;104198;-93
2021/12/05 12:47:07;;;;;;;;;25.25;24.00;;;;;17.34;51.10;97210.41;4664589;28;103300;-94
2021/12/05 12:49:40;;;;;;;;;23.25;20.00;;;;;17.44;52.26;97206.81;4701540;28;103152;-91
2021/12/05 12:52:18;;;;;;;;;27.25;24.50;;;;;17.53;51.00;97197.75;4622029;28;102579;-94
2021/12/05 12:54:52;;;;;;;;;27.50;23.25;;;;;17.65;51.22;97197.50;4774644;28;105980;-94
2021/12/05 12:57:32;;;;;;;;;25.75;21.50;;;;;17.72;50.47;97198.00;4726546;29;102786;-95
2021/12/05 13:00:06;;;;;;;;;22.75;19.25;;;;;17.82;50.75;97204.22;4712843;28;102778;-90
2021/12/05 13:11:00;;;;;;;;;21.50;20.75;;;;;18.11;50.49;97195.28;4907898;28;102653;-92
2021/12/05 13:13:29;;;;;;;;;28.00;22.50;;;;;18.18;50.58;97204.84;4899983;28;102278;-90
2021/12/05 13:16:29;;;;;;;;;22.75;19.50;;;;;18.23;49.84;97199.34;4893997;28;103709;-90
2021/12/05 13:19:08;;;;;;;;;20.00;19.50;;;;;18.32;49.46;97202.28;4908658;28;102767;-93
2021/12/05 13:21:39;;;;;;;;;22.00;20.00;;;;;18.37;49.60;97202.22;4897594;28;102906;-91
2021/12/05 13:24:27;;;;;;;;;24.00;22.25;;;;;18.43;49.99;97206.56;4914242;28;102600;-93
2021/12/05 13:27:05;;;;;;;;;21.75;19.50;;;;;18.49;49.91;97202.69;4902743;28;108902;-90
2021/12/05 13:29:37;;;;;;;;;27.50;22.00;;;;;18.55;49.78;97201.56;4914120;28;102995;-82
2021/12/05 13:32:07;;;;;;;;;24.00;21.25;;;;;18.61;49.25;97191.41;4901037;28;102464;-90
2021/12/05 13:34:48;;;;;;;;;21.75;20.00;;;;;18.64;49.90;97182.63;4904699;28;102536;-88
2021/12/05 13:37:18;;;;;;;;;21.75;20.00;;;;;18.70;49.90;97195.97;4835889;28;108887;-95
2021/12/05 13:39:47;;;;;;;;;21.00;17.25;;;;;18.76;49.43;97193.19;4901812;28;102302;-88
2021/12/05 13:42:41;;;;;;;;;5.00;3.00;;;;;18.81;49.99;97196.72;4896342;28;102579;-90
2021/12/05 13:45:23;;;;;;;;;20.75;17.25;;;;;18.86;49.51;97206.81;4893183;28;102643;-89
2021/12/05 13:47:58;;;;;;;;;20.75;17.25;;;;;18.90;49.15;97192.25;4912127;28;108719;-89
2021/12/05 13:50:28;;;;;;;;;24.75;21.00;;;;;18.90;49.30;97199.66;4887212;28;102967;-89
2021/12/05 13:53:02;;;;;;;;;24.00;21.00;;;;;18.94;49.41;97201.53;4842518;28;104722;-91
2021/12/05 13:55:53;;;;;;;;;22.25;20.25;;;;;18.99;49.53;97215.16;4843977;28;102456;-93
2021/12/05 13:58:48;;;;;;;;;22.00;19.50;;;;;19.03;49.34;97220.88;4761063;28;108532;-88
2021/12/05 14:01:34;;;;;;;;;21.50;17.25;;;;;19.04;49.68;97215.13;4863737;28;104200;-88
2021/12/05 14:04:10;;;;;;;;;16.25;14.75;;;;;19.12;49.74;97221.88;4869000;28;105085;-87
2021/12/05 14:06:54;;;;;;;;;24.50;18.50;;;;;19.16;49.54;97222.94;4899116;28;102598;-85
2021/12/05 14:09:26;;;;;;;;;23.00;18.00;;;;;19.20;49.65;97218.50;4873228;28;108395;-86
2021/12/05 14:12:11;;;;;;;;;28.25;24.50;;;;;19.24;50.14;97216.00;4908493;28;102603;-85
2021/12/05 14:14:48;;;;;;;;;29.75;23.25;;;;;19.26;50.27;97224.75;4907943;28;103847;-87
2021/12/05 14:17:20;;;;;;;;;23.00;21.00;;;;;19.30;49.59;97221.16;4888255;28;103763;-85
2021/12/05 14:19:50;;;;;;;;;23.75;20.50;;;;;19.33;49.74;97215.06;4901426;28;108398;-85
2021/12/05 14:22:20;;;;;;;;;22.00;20.00;;;;;19.35;49.33;97215.63;4907337;28;102763;-86
2021/12/05 14:24:50;;;;;;;;;23.00;17.50;;;;;19.38;49.58;97222.44;4924583;28;102878;-86
2021/12/05 14:27:22;;;;;;;;;19.25;18.00;;;;;19.41;49.82;97221.84;4885425;28;103259;-84
2021/12/05 14:29:50;;;;;;;;;23.25;19.50;;;;;19.43;50.23;97228.72;4892342;28;107579;-84
2021/12/05 14:32:25;;;;;;;;;22.25;18.50;;;;;19.45;49.67;97228.44;4892794;28;102732;-88
2021/12/05 14:35:00;;;;;;;;;31.00;21.00;;;;;19.46;50.23;97222.63;4906381;28;102412;-85
2021/12/05 14:37:28;;;;;;;;;29.25;24.75;;;;;19.47;48.88;97223.44;4889254;28;103519;-86
2021/12/05 14:39:59;;;;;;;;;24.50;21.00;;;;;19.50;48.85;97222.88;4919482;28;105597;-88
2021/12/05 14:42:28;;;;;;;;;7.25;6.25;;;;;19.50;48.85;97229.16;4917029;28;102707;-85
2021/12/05 14:45:15;;;;;;;;;27.00;21.25;;;;;19.52;48.94;97231.63;4890494;28;103420;-88
2021/12/05 14:47:44;;;;;;;;;16.50;14.75;;;;;19.52;48.64;97237.94;4914368;28;103540;-87
2021/12/05 14:50:12;;;;;;;;;27.50;21.25;;;;;19.55;48.46;97247.47;4877459;28;105045;-90
2021/12/05 14:52:42;;;;;;;;;24.75;20.25;;;;;19.58;48.34;97258.72;4887118;28;102656;-91
2021/12/05 14:55:12;;;;;;;;;24.75;20.75;;;;;19.64;48.39;97266.84;4911531;28;102220;-87
2021/12/05 14:57:56;;;;;;;;;22.00;19.50;;;;;19.68;47.83;97271.47;4866650;28;102406;-88
2021/12/05 15:00:27;;;;;;;;;22.25;18.00;;;;;19.71;47.68;97284.63;4867623;28;108850;-87
2021/12/05 15:03:00;;;;;;;;;26.75;17.50;;;;;19.75;47.68;97287.59;4892152;28;103325;-87
2021/12/05 15:05:28;;;;;;;;;20.25;17.25;;;;;19.78;47.81;97295.22;4885201;28;102889;-86
2021/12/05 15:08:15;;;;;;;;;19.50;18.00;;;;;19.79;47.69;97303.16;4901805;28;102764;-87
2021/12/05 15:10:46;;;;;;;;;18.25;15.00;;;;;19.83;47.71;97308.88;4905054;28;104259;-90
2021/12/05 15:13:14;;;;;;;;;17.50;14.25;;;;;19.85;47.42;97312.16;4909295;28;102639;-89
2021/12/05 15:15:41;;;;;;;;;23.75;19.25;;;;;19.79;47.52;97308.66;4888858;28;103923;-88
2021/12/05 15:18:14;;;;;;;;;19.50;18.25;;;;;19.73;47.87;97304.31;4913048;28;102579;-88
2021/12/05 15:20:41;;;;;;;;;20.00;16.75;;;;;19.68;48.02;97312.59;4914156;28;104179;-88
2021/12/05 15:23:09;;;;;;;;;16.50;16.00;;;;;19.65;48.17;97317.84;4886435;28;103407;-88
2021/12/05 15:25:38;;;;;;;;;17.25;15.75;;;;;19.60;48.29;97311.31;4878399;28;105564;-88
2021/12/05 15:28:06;;;;;;;;;16.00;14.00;;;;;19.56;48.56;97310.28;4904137;28;102670;-87
2021/12/05 15:30:37;;;;;;;;;17.25;15.00;;;;;19.54;48.48;97301.50;4781889;28;103903;-87
2021/12/05 15:33:16;;;;;;;;;21.00;18.00;;;;;19.51;49.22;97293.88;4817952;28;102744;-88
2021/12/05 15:35:46;;;;;;;;;21.50;17.00;;;;;19.49;49.46;97293.34;4881144;28;104139;-88
2021/12/05 15:38:15;;;;;;;;;18.25;17.00;;;;;19.47;49.37;97284.59;4896169;28;102740;-87
2021/12/05 15:40:44;;;;;;;;;20.00;16.75;;;;;19.46;50.00;97302.13;4900942;28;104521;-87
2021/12/05 15:43:14;;;;;;;;;16.50;14.00;;;;;19.44;49.52;97298.06;4906714;28;105087;-87
2021/12/05 15:45:42;;;;;;;;;19.50;17.00;;;;;19.42;49.35;97301.06;4901973;28;102698;-87
2021/12/05 15:48:09;;;;;;;;;18.50;15.75;;;;;19.39;49.71;97296.16;4906473;28;102881;-87
2021/12/05 15:50:37;;;;;;;;;14.75;13.75;;;;;19.41;49.77;97302.16;4900916;28;104738;-86
2021/12/05 15:53:10;;;;;;;;;17.50;15.25;;;;;19.38;49.82;97296.44;4881242;28;102580;-86
2021/12/05 15:55:40;;;;;;;;;18.00;16.00;;;;;19.39;49.71;97304.38;4870615;28;102780;-87
2021/12/05 15:58:22;;;;;;;;;15.25;14.00;;;;;19.37;49.74;97305.75;4911208;28;102705;-87
2021/12/05 16:01:05;;;;;;;;;16.25;15.00;;;;;19.37;50.25;97295.63;4876767;28;109129;-87
2021/12/05 16:03:47;;;;;;;;;10.25;8.00;;;;;19.36;49.96;97304.94;4885545;28;102592;-87
2021/12/05 16:06:15;;;;;;;;;16.50;15.00;;;;;19.36;50.21;97310.44;4896192;28;102499;-87
2021/12/05 16:08:44;;;;;;;;;17.75;15.00;;;;;19.35;49.77;97314.28;4905723;28;102756;-88
2021/12/05 16:11:14;;;;;;;;;19.00;16.50;;;;;19.35;50.12;97314.28;4870495;28;104102;-87
2021/12/05 16:13:43;;;;;;;;;21.50;16.25;;;;;19.35;50.14;97319.78;4870759;28;102649;-87
2021/12/05 16:16:15;;;;;;;;;21.00;16.00;;;;;19.34;50.08;97307.16;4855795;28;102693;-87
2021/12/05 16:18:45;;;;;;;;;13.75;10.75;;;;;19.34;50.21;97323.63;4871074;28;104067;-86
2021/12/05 16:21:31;;;;;;;;;17.50;15.25;;;;;19.32;50.12;97314.84;4871257;28;104426;-86
2021/12/05 16:24:15;;;;;;;;;17.25;16.25;;;;;19.34;50.28;97311.84;4848654;28;102539;-88
2021/12/05 16:26:44;;;;;;;;;17.50;15.50;;;;;19.34;50.08;97317.31;4887438;28;103405;-87
2021/12/05 16:29:14;;;;;;;;;17.00;16.00;;;;;19.33;50.33;97310.19;4862331;28;103120;-87
2021/12/05 16:31:43;;;;;;;;;15.25;15.00;;;;;19.33;50.16;97319.22;4864659;28;104058;-87
2021/12/05 16:34:17;;;;;;;;;19.00;16.00;;;;;19.33;50.45;97316.50;4866855;28;102580;-87
2021/12/05 16:37:02;;;;;;;;;18.75;14.25;;;;;19.33;50.29;97307.44;4840868;28;102938;-87
2021/12/05 16:39:34;;;;;;;;;14.50;13.00;;;;;19.33;50.27;97321.16;4873006;28;104134;-87
2021/12/05 16:42:16;;;;;;;;;18.25;18.00;;;;;19.33;49.91;97321.16;4855555;28;104104;-82
2021/12/05 16:44:57;;;;;;;;;27.00;21.50;;;;;19.27;49.84;97320.41;4853263;28;102352;-81
2021/12/05 16:47:26;;;;;;;;;29.00;24.75;;;;;19.20;49.71;97328.13;4860753;28;103393;-81